Time;durP1;ratioP1;P1;durP2;ratioP2;P2;SDS_P1;SDS_P2;PMS_P1;PMS_P2;Temp;Humidity;BMP_temperature;BMP_pressure;BME280_temperature;BME280_humidity;BME280_pressure;Samples;Min_cycle;Max_cycle;Signal;HPM_P1;HPM_P2
2021/12/26 00:00:55;;;;;;;6.95;1.73;;;;;;;;;;4987476;28;20030;-62
2021/12/26 00:03:23;;;;;;;7.63;1.48;;;;;;;;;;4987459;28;20038;-64
2021/12/26 00:05:51;;;;;;;7.70;1.42;;;;;;;;;;4988510;28;20018;-64
2021/12/26 00:08:19;;;;;;;7.80;1.33;;;;;;;;;;4988449;28;20033;-64
2021/12/26 00:10:48;;;;;;;8.50;1.30;;;;;;;;;;4988357;28;20550;-64
2021/12/26 00:13:16;;;;;;;7.45;1.55;;;;;;;;;;4987044;28;20035;-65
2021/12/26 00:15:43;;;;;;;6.82;1.40;;;;;;;;;;4987765;28;20022;-63
2021/12/26 00:18:10;;;;;;;8.20;1.33;;;;;;;;;;4988370;28;20106;-62
2021/12/26 00:20:40;;;;;;;8.75;1.25;;;;;;;;;;4988614;28;20019;-64
2021/12/26 00:23:08;;;;;;;10.93;1.85;;;;;;;;;;4988526;28;20054;-64
2021/12/26 00:25:35;;;;;;;7.70;2.00;;;;;;;;;;4987651;28;20046;-63
2021/12/26 00:28:03;;;;;;;4.82;1.67;;;;;;;;;;4991467;28;20051;-63
2021/12/26 00:30:30;;;;;;;10.02;1.67;;;;;;;;;;4990759;28;20026;-63
2021/12/26 00:32:57;;;;;;;10.38;1.75;;;;;;;;;;4991579;28;20057;-63
2021/12/26 00:35:24;;;;;;;11.43;1.98;;;;;;;;;;4992113;28;20387;-65
2021/12/26 00:37:51;;;;;;;7.70;1.85;;;;;;;;;;4989966;28;20027;-65
2021/12/26 00:40:20;;;;;;;5.85;1.38;;;;;;;;;;4991792;28;20061;-64
2021/12/26 00:42:48;;;;;;;7.90;1.88;;;;;;;;;;4991887;28;20015;-65
2021/12/26 00:45:16;;;;;;;16.08;1.98;;;;;;;;;;4991867;28;20026;-65
2021/12/26 00:47:43;;;;;;;10.18;2.10;;;;;;;;;;4991593;28;20031;-63
2021/12/26 00:50:13;;;;;;;11.23;1.88;;;;;;;;;;4989701;28;20030;-66
2021/12/26 00:52:40;;;;;;;10.70;2.05;;;;;;;;;;4991628;28;20022;-64
2021/12/26 00:55:09;;;;;;;8.73;2.10;;;;;;;;;;4991898;28;20092;-65
2021/12/26 00:57:36;;;;;;;7.47;1.92;;;;;;;;;;4991638;28;20084;-65
2021/12/26 01:00:06;;;;;;;13.23;2.00;;;;;;;;;;4991509;28;20073;-64
2021/12/26 01:02:33;;;;;;;5.93;1.75;;;;;;;;;;4990076;28;20051;-64
2021/12/26 01:05:00;;;;;;;11.88;2.25;;;;;;;;;;4991044;28;20041;-63
2021/12/26 01:07:43;;;;;;;11.38;1.90;;;;;;;;;;4991591;28;20113;-63
2021/12/26 01:10:11;;;;;;;8.40;1.75;;;;;;;;;;4992064;28;20053;-65
2021/12/26 01:12:39;;;;;;;15.88;2.05;;;;;;;;;;4990616;28;20030;-63
2021/12/26 01:15:09;;;;;;;12.38;1.90;;;;;;;;;;4990243;28;20077;-64
2021/12/26 01:17:39;;;;;;;8.80;2.15;;;;;;;;;;4991044;28;20034;-63
2021/12/26 01:20:10;;;;;;;10.07;1.90;;;;;;;;;;4991601;28;20038;-65
2021/12/26 01:22:37;;;;;;;8.77;1.80;;;;;;;;;;4991384;28;20486;-63
2021/12/26 01:25:05;;;;;;;9.13;2.03;;;;;;;;;;4989318;28;20050;-62
2021/12/26 01:27:32;;;;;;;11.88;1.67;;;;;;;;;;4990324;28;20562;-63
2021/12/26 01:29:59;;;;;;;9.00;1.85;;;;;;;;;;4991013;28;20386;-63
2021/12/26 01:32:26;;;;;;;10.02;1.83;;;;;;;;;;4990491;28;20386;-62
2021/12/26 01:34:53;;;;;;;10.88;1.83;;;;;;;;;;4991307;28;20022;-64
2021/12/26 01:37:21;;;;;;;8.40;1.70;;;;;;;;;;4988162;28;20042;-61
2021/12/26 01:39:48;;;;;;;8.57;1.90;;;;;;;;;;4990470;28;20398;-62
2021/12/26 01:42:15;;;;;;;9.00;2.22;;;;;;;;;;4991011;28;20665;-62
2021/12/26 01:44:42;;;;;;;9.68;2.15;;;;;;;;;;4990445;28;20043;-63
2021/12/26 01:47:10;;;;;;;12.38;2.55;;;;;;;;;;4991274;28;20402;-63
2021/12/26 01:49:37;;;;;;;10.23;2.00;;;;;;;;;;4989258;28;20397;-62
2021/12/26 01:52:06;;;;;;;7.82;1.77;;;;;;;;;;4989065;28;20026;-62
2021/12/26 01:54:45;;;;;;;12.05;2.08;;;;;;;;;;4990879;28;20108;-62
2021/12/26 01:57:13;;;;;;;7.90;1.73;;;;;;;;;;4990544;28;20479;-62
2021/12/26 01:59:41;;;;;;;8.90;1.65;;;;;;;;;;4991019;28;20034;-62
2021/12/26 02:02:09;;;;;;;17.45;2.20;;;;;;;;;;4988564;28;20026;-62
2021/12/26 02:04:39;;;;;;;7.60;2.05;;;;;;;;;;4990196;28;20037;-62
2021/12/26 02:07:07;;;;;;;11.65;2.10;;;;;;;;;;4990573;28;20418;-62
2021/12/26 02:09:34;;;;;;;16.02;2.55;;;;;;;;;;4990167;28;20022;-62
2021/12/26 02:12:01;;;;;;;11.05;2.72;;;;;;;;;;4988820;28;20603;-65
2021/12/26 02:14:28;;;;;;;10.13;1.80;;;;;;;;;;4988601;28;20125;-64
2021/12/26 02:16:55;;;;;;;10.57;2.38;;;;;;;;;;4989713;28;20033;-65
2021/12/26 02:19:22;;;;;;;11.73;1.70;;;;;;;;;;4990528;28;20053;-65
2021/12/26 02:22:14;;;;;;;11.10;1.83;;;;;;;;;;4989728;28;20018;-66
2021/12/26 02:27:33;;;;;;;8.85;1.52;;;;;;;;;;4969898;28;20084;-65
2021/12/26 02:30:01;;;;;;;8.80;1.70;;;;;;;;;;4989669;28;20035;-64
2021/12/26 02:32:29;;;;;;;12.45;1.83;;;;;;;;;;4989823;28;20025;-65
2021/12/26 02:34:57;;;;;;;8.77;1.50;;;;;;;;;;4990112;28;20034;-65
2021/12/26 02:37:24;;;;;;;11.13;1.73;;;;;;;;;;4987957;28;20379;-65
2021/12/26 02:39:51;;;;;;;9.35;1.90;;;;;;;;;;4989780;28;20090;-66
2021/12/26 02:42:22;;;;;;;6.97;1.67;;;;;;;;;;4989655;28;20053;-65
2021/12/26 02:44:50;;;;;;;5.78;1.38;;;;;;;;;;4989226;28;20490;-64
2021/12/26 02:47:32;;;;;;;9.73;1.80;;;;;;;;;;4990046;28;20022;-63
2021/12/26 02:50:00;;;;;;;12.50;1.50;;;;;;;;;;4987328;28;20102;-64
2021/12/26 02:52:28;;;;;;;10.48;2.55;;;;;;;;;;4989501;28;20768;-65
2021/12/26 02:54:55;;;;;;;13.38;1.98;;;;;;;;;;4989765;28;20126;-64
2021/12/26 02:57:22;;;;;;;8.57;1.80;;;;;;;;;;4989046;28;20034;-64
2021/12/26 02:59:49;;;;;;;10.77;1.70;;;;;;;;;;4989841;28;20034;-65
2021/12/26 03:02:16;;;;;;;19.80;2.35;;;;;;;;;;4986785;28;20647;-65
2021/12/26 03:04:43;;;;;;;7.25;1.80;;;;;;;;;;4989091;28;20038;-65
2021/12/26 03:07:10;;;;;;;9.60;1.88;;;;;;;;;;4989484;28;20026;-66
2021/12/26 03:09:50;;;;;;;8.05;1.70;;;;;;;;;;4988738;28;20034;-65
2021/12/26 03:12:17;;;;;;;8.57;1.80;;;;;;;;;;4989011;28;20371;-64
2021/12/26 03:14:45;;;;;;;5.03;1.45;;;;;;;;;;4987401;28;20030;-65
2021/12/26 03:17:13;;;;;;;9.82;2.13;;;;;;;;;;4988678;28;20096;-65
2021/12/26 03:19:40;;;;;;;10.18;1.50;;;;;;;;;;4989495;28;20058;-66
2021/12/26 03:22:07;;;;;;;5.40;1.75;;;;;;;;;;4988825;28;20052;-64
2021/12/26 03:24:35;;;;;;;8.93;1.80;;;;;;;;;;4988404;28;20038;-65
2021/12/26 03:27:03;;;;;;;6.13;1.60;;;;;;;;;;4987607;28;20121;-64
2021/12/26 03:29:30;;;;;;;6.47;1.60;;;;;;;;;;4988409;28;20054;-64
2021/12/26 03:31:57;;;;;;;8.70;1.73;;;;;;;;;;4989031;28;20018;-64
2021/12/26 03:34:25;;;;;;;9.85;1.75;;;;;;;;;;4988714;28;20026;-64
2021/12/26 03:36:53;;;;;;;8.07;1.48;;;;;;;;;;4987735;28;20061;-65
2021/12/26 03:39:20;;;;;;;8.07;1.58;;;;;;;;;;4988118;28;20105;-65
2021/12/26 03:41:48;;;;;;;6.20;1.55;;;;;;;;;;4988341;28;20037;-65
2021/12/26 03:44:15;;;;;;;8.18;1.67;;;;;;;;;;4988974;28;20030;-65
2021/12/26 03:46:43;;;;;;;5.20;1.52;;;;;;;;;;4988731;28;20038;-63
2021/12/26 03:49:10;;;;;;;11.45;2.08;;;;;;;;;;4986972;28;20022;-63
2021/12/26 03:51:38;;;;;;;12.02;2.30;;;;;;;;;;4988410;28;20029;-64
2021/12/26 03:54:05;;;;;;;6.43;2.05;;;;;;;;;;4988487;28;20033;-65
2021/12/26 03:56:33;;;;;;;6.82;1.60;;;;;;;;;;4988798;28;20025;-63
2021/12/26 03:59:00;;;;;;;9.80;1.52;;;;;;;;;;4988616;28;20034;-65
2021/12/26 04:01:27;;;;;;;7.55;1.60;;;;;;;;;;4990626;28;20030;-64
2021/12/26 04:03:55;;;;;;;4.68;1.60;;;;;;;;;;4992562;28;20502;-63
2021/12/26 04:06:22;;;;;;;5.53;1.50;;;;;;;;;;4992173;28;20430;-62
2021/12/26 04:08:49;;;;;;;11.80;1.80;;;;;;;;;;4992511;28;20045;-62
2021/12/26 04:11:17;;;;;;;5.32;1.73;;;;;;;;;;4992614;28;20023;-62
2021/12/26 04:13:44;;;;;;;4.78;1.83;;;;;;;;;;4990133;28;20100;-62
2021/12/26 04:16:11;;;;;;;8.20;1.70;;;;;;;;;;4992439;28;20080;-62
2021/12/26 04:18:38;;;;;;;4.50;1.40;;;;;;;;;;4991901;28;20045;-62
2021/12/26 04:21:08;;;;;;;5.85;1.45;;;;;;;;;;4990467;28;20026;-62
2021/12/26 04:23:35;;;;;;;7.20;2.00;;;;;;;;;;4992362;28;20042;-64
2021/12/26 04:26:02;;;;;;;6.38;1.90;;;;;;;;;;4989473;28;20034;-63
2021/12/26 04:28:29;;;;;;;9.13;2.15;;;;;;;;;;4990521;28;20129;-62
2021/12/26 04:30:56;;;;;;;12.52;1.50;;;;;;;;;;4991757;28;20022;-62
2021/12/26 04:33:23;;;;;;;5.18;1.80;;;;;;;;;;4991749;28;20042;-62
2021/12/26 04:35:50;;;;;;;7.20;1.65;;;;;;;;;;4992025;28;20113;-61
2021/12/26 04:38:17;;;;;;;8.10;1.50;;;;;;;;;;4989395;28;20026;-62
2021/12/26 04:40:44;;;;;;;6.80;1.88;;;;;;;;;;4991925;28;20053;-65
2021/12/26 04:43:11;;;;;;;9.32;1.48;;;;;;;;;;4989961;28;20031;-63
2021/12/26 04:45:38;;;;;;;11.50;1.65;;;;;;;;;;4991710;28;20037;-63
2021/12/26 04:48:06;;;;;;;9.82;1.67;;;;;;;;;;4992136;28;20030;-64
2021/12/26 04:50:33;;;;;;;8.65;1.98;;;;;;;;;;4988910;28;20030;-66
2021/12/26 04:53:00;;;;;;;6.80;1.50;;;;;;;;;;4991882;28;20034;-66
2021/12/26 04:55:27;;;;;;;8.13;1.45;;;;;;;;;;4991538;28;20022;-67
2021/12/26 04:57:55;;;;;;;8.93;1.73;;;;;;;;;;4991070;28;20024;-65
2021/12/26 05:00:24;;;;;;;8.73;2.00;;;;;;;;;;4991311;28;20113;-64
2021/12/26 05:02:51;;;;;;;5.70;1.38;;;;;;;;;;4989351;28;20429;-65
2021/12/26 05:05:19;;;;;;;9.38;1.85;;;;;;;;;;4990111;28;20784;-64
2021/12/26 05:07:46;;;;;;;4.10;1.42;;;;;;;;;;4991384;28;20030;-65
2021/12/26 05:10:14;;;;;;;7.82;1.52;;;;;;;;;;4990972;28;20098;-64
2021/12/26 05:12:41;;;;;;;5.90;1.40;;;;;;;;;;4989811;28;20026;-63
2021/12/26 05:15:09;;;;;;;5.05;1.20;;;;;;;;;;4989486;28;20026;-65
2021/12/26 05:17:37;;;;;;;7.05;1.45;;;;;;;;;;4991142;28;20022;-62
2021/12/26 05:20:04;;;;;;;5.95;1.33;;;;;;;;;;4991135;28;20018;-66
2021/12/26 05:22:31;;;;;;;7.18;1.05;;;;;;;;;;4990627;28;20029;-64
2021/12/26 05:24:58;;;;;;;7.88;1.40;;;;;;;;;;4990379;28;20057;-64
2021/12/26 05:27:25;;;;;;;5.28;1.23;;;;;;;;;;4989224;28;20089;-64
2021/12/26 05:29:52;;;;;;;7.53;1.55;;;;;;;;;;4990570;28;20117;-65
2021/12/26 05:32:19;;;;;;;4.53;1.20;;;;;;;;;;4991155;28;20018;-65
2021/12/26 05:34:46;;;;;;;5.18;1.27;;;;;;;;;;4990292;28;20033;-66
2021/12/26 05:37:13;;;;;;;7.93;1.40;;;;;;;;;;4989808;28;20019;-65
2021/12/26 05:39:42;;;;;;;5.28;1.45;;;;;;;;;;4989520;28;20031;-66
2021/12/26 05:42:15;;;;;;;5.40;1.42;;;;;;;;;;4990716;28;20037;-63
2021/12/26 05:44:43;;;;;;;6.28;1.10;;;;;;;;;;4990841;28;20042;-65
2021/12/26 05:47:10;;;;;;;8.50;1.48;;;;;;;;;;4989800;28;20068;-64
2021/12/26 05:49:37;;;;;;;9.93;1.60;;;;;;;;;;4989024;28;20406;-63
2021/12/26 05:52:05;;;;;;;7.60;1.52;;;;;;;;;;4990035;28;20061;-67
2021/12/26 05:54:32;;;;;;;3.60;1.00;;;;;;;;;;4989880;28;20036;-63
2021/12/26 05:56:59;;;;;;;6.53;1.52;;;;;;;;;;4990818;28;20019;-65
2021/12/26 05:59:26;;;;;;;5.07;1.20;;;;;;;;;;4989660;28;20041;-65
2021/12/26 06:01:53;;;;;;;5.30;1.30;;;;;;;;;;4987221;28;20491;-64
2021/12/26 06:04:20;;;;;;;8.95;1.40;;;;;;;;;;4990425;28;20035;-65
2021/12/26 06:06:47;;;;;;;5.30;1.27;;;;;;;;;;4989695;28;20502;-63
2021/12/26 06:09:14;;;;;;;5.18;1.40;;;;;;;;;;4990361;28;20098;-63
2021/12/26 06:11:41;;;;;;;8.55;1.67;;;;;;;;;;4990173;28;20465;-64
2021/12/26 06:14:08;;;;;;;4.13;1.10;;;;;;;;;;4988055;28;20490;-64
2021/12/26 06:16:35;;;;;;;4.40;1.35;;;;;;;;;;4990177;28;20025;-65
2021/12/26 06:19:03;;;;;;;6.63;1.88;;;;;;;;;;4989464;28;20049;-62
2021/12/26 06:21:30;;;;;;;7.00;1.45;;;;;;;;;;4990311;28;20037;-64
2021/12/26 06:23:58;;;;;;;5.20;1.15;;;;;;;;;;4989000;28;20034;-65
2021/12/26 06:26:26;;;;;;;3.38;1.23;;;;;;;;;;4987786;28;20022;-64
2021/12/26 06:28:53;;;;;;;10.55;1.27;;;;;;;;;;4989682;28;20050;-65
2021/12/26 06:31:20;;;;;;;7.18;1.33;;;;;;;;;;4989319;28;20418;-63
2021/12/26 06:33:48;;;;;;;4.63;1.52;;;;;;;;;;4990167;28;20113;-66
2021/12/26 06:36:15;;;;;;;3.92;1.17;;;;;;;;;;4989048;28;20034;-62
2021/12/26 06:38:43;;;;;;;3.72;0.90;;;;;;;;;;4987488;28;20489;-62
2021/12/26 06:41:12;;;;;;;7.68;1.45;;;;;;;;;;4989734;28;20526;-64
2021/12/26 06:43:40;;;;;;;3.75;0.90;;;;;;;;;;4989092;28;20034;-64
2021/12/26 06:46:07;;;;;;;7.85;1.00;;;;;;;;;;4989771;28;20030;-61
2021/12/26 06:48:34;;;;;;;5.75;1.17;;;;;;;;;;4988462;28;20026;-61
2021/12/26 06:51:02;;;;;;;4.20;1.00;;;;;;;;;;4987700;28;20263;-63
2021/12/26 06:53:29;;;;;;;5.60;1.25;;;;;;;;;;4989806;28;20065;-63
2021/12/26 06:55:56;;;;;;;8.57;1.35;;;;;;;;;;4989007;28;20110;-64
2021/12/26 06:58:23;;;;;;;5.53;1.23;;;;;;;;;;4989359;28;20026;-62
2021/12/26 07:00:50;;;;;;;5.40;0.88;;;;;;;;;;4987885;28;20097;-62
2021/12/26 07:03:18;;;;;;;3.40;1.20;;;;;;;;;;4986490;28;20536;-63
2021/12/26 07:05:45;;;;;;;4.93;1.33;;;;;;;;;;4989641;28;20087;-63
2021/12/26 07:08:12;;;;;;;4.30;1.10;;;;;;;;;;4988477;28;20033;-63
2021/12/26 07:10:44;;;;;;;7.45;1.10;;;;;;;;;;4988829;28;20112;-65
2021/12/26 07:13:11;;;;;;;3.83;1.23;;;;;;;;;;4987948;28;20031;-64
2021/12/26 07:15:38;;;;;;;5.25;1.02;;;;;;;;;;4987974;28;20042;-63
2021/12/26 07:18:05;;;;;;;3.58;1.15;;;;;;;;;;4989506;28;20026;-63
2021/12/26 07:20:32;;;;;;;4.75;1.02;;;;;;;;;;4988389;28;20065;-65
2021/12/26 07:22:59;;;;;;;3.97;0.95;;;;;;;;;;4989576;28;20528;-65
2021/12/26 07:25:26;;;;;;;3.05;1.00;;;;;;;;;;4989394;28;20709;-64
2021/12/26 07:27:53;;;;;;;3.22;1.42;;;;;;;;;;4986787;28;20085;-66
2021/12/26 07:30:20;;;;;;;5.38;1.10;;;;;;;;;;4989251;28;20041;-66
2021/12/26 07:32:47;;;;;;;4.68;1.13;;;;;;;;;;4988409;28;20022;-64
2021/12/26 07:35:14;;;;;;;4.25;1.20;;;;;;;;;;4986383;28;20084;-65
2021/12/26 07:37:41;;;;;;;3.13;0.98;;;;;;;;;;4987139;28;20023;-66
2021/12/26 07:40:09;;;;;;;5.00;1.40;;;;;;;;;;4987971;28;20084;-66
2021/12/26 07:42:36;;;;;;;3.30;1.02;;;;;;;;;;4988789;28;20030;-66
2021/12/26 07:45:03;;;;;;;3.15;0.93;;;;;;;;;;4988401;28;20038;-65
2021/12/26 07:47:30;;;;;;;3.17;1.20;;;;;;;;;;4988339;28;20485;-63
2021/12/26 07:49:57;;;;;;;4.68;1.30;;;;;;;;;;4986667;28;20057;-65
2021/12/26 07:52:29;;;;;;;3.40;0.80;;;;;;;;;;4988473;28;20023;-63
2021/12/26 07:54:56;;;;;;;3.10;1.00;;;;;;;;;;4971999;28;20153;-62
2021/12/26 07:57:23;;;;;;;2.63;1.00;;;;;;;;;;4988606;28;20021;-64
2021/12/26 07:59:50;;;;;;;4.60;0.85;;;;;;;;;;4988238;28;20742;-66
2021/12/26 08:02:20;;;;;;;4.40;1.10;;;;;;;;;;4987016;28;20498;-65
2021/12/26 08:04:47;;;;;;;6.05;1.15;;;;;;;;;;4987929;28;20034;-66
2021/12/26 08:07:14;;;;;;;5.38;1.10;;;;;;;;;;4988507;28;20218;-64
2021/12/26 08:09:41;;;;;;;3.95;1.23;;;;;;;;;;4988688;28;20033;-66
2021/12/26 08:12:09;;;;;;;2.47;0.90;;;;;;;;;;4987346;28;20026;-66
2021/12/26 08:14:36;;;;;;;3.17;1.00;;;;;;;;;;4986854;28;20034;-65
2021/12/26 08:17:03;;;;;;;3.20;1.08;;;;;;;;;;4988053;28;20470;-65
2021/12/26 08:19:30;;;;;;;2.22;0.60;;;;;;;;;;4987851;28;20031;-65
2021/12/26 08:21:57;;;;;;;8.70;1.10;;;;;;;;;;4989036;28;20098;-64
2021/12/26 08:24:26;;;;;;;5.97;1.10;;;;;;;;;;4987164;28;20042;-65
2021/12/26 08:26:54;;;;;;;2.92;1.05;;;;;;;;;;4986873;28;20620;-63
2021/12/26 08:29:24;;;;;;;5.47;1.38;;;;;;;;;;4986861;28;20035;-66
2021/12/26 08:31:54;;;;;;;5.10;1.05;;;;;;;;;;4986551;28;20019;-66
2021/12/26 08:34:21;;;;;;;4.35;1.20;;;;;;;;;;4987173;28;20282;-64
2021/12/26 08:36:58;;;;;;;6.30;1.85;;;;;;;;;;4986666;28;20664;-64
2021/12/26 08:39:26;;;;;;;3.35;1.13;;;;;;;;;;4987486;28;20042;-64
2021/12/26 08:41:53;;;;;;;6.63;1.40;;;;;;;;;;4988432;28;20102;-62
2021/12/26 08:44:20;;;;;;;5.43;1.27;;;;;;;;;;4986212;28;20407;-65
2021/12/26 08:46:50;;;;;;;10.00;1.40;;;;;;;;;;4990523;28;20552;-64
2021/12/26 08:49:17;;;;;;;8.05;1.38;;;;;;;;;;4989364;28;20034;-63
2021/12/26 08:51:45;;;;;;;3.97;1.00;;;;;;;;;;4990983;28;20395;-65
2021/12/26 08:54:12;;;;;;;4.25;1.00;;;;;;;;;;4991890;28;20503;-66
2021/12/26 08:56:39;;;;;;;5.80;1.00;;;;;;;;;;4991316;28;20031;-64
2021/12/26 08:59:06;;;;;;;3.10;0.63;;;;;;;;;;4991767;28;20034;-62
2021/12/26 09:01:33;;;;;;;2.40;0.90;;;;;;;;;;4989371;28;20022;-61
2021/12/26 09:04:00;;;;;;;3.15;1.00;;;;;;;;;;4990948;28;20552;-64
2021/12/26 09:06:27;;;;;;;8.05;1.60;;;;;;;;;;4991727;28;20054;-64
2021/12/26 09:08:54;;;;;;;3.22;0.77;;;;;;;;;;4990630;28;20034;-64
2021/12/26 09:11:21;;;;;;;4.75;0.80;;;;;;;;;;4991768;28;20521;-64
2021/12/26 09:13:48;;;;;;;4.70;1.38;;;;;;;;;;4989145;28;20382;-65
2021/12/26 09:16:15;;;;;;;4.72;1.00;;;;;;;;;;4991307;28;20018;-63
2021/12/26 09:18:43;;;;;;;3.85;1.08;;;;;;;;;;4991417;28;20031;-64
2021/12/26 09:21:10;;;;;;;3.63;0.80;;;;;;;;;;4990713;28;20065;-65
2021/12/26 09:23:37;;;;;;;6.13;1.17;;;;;;;;;;4991049;28;20034;-63
2021/12/26 09:26:04;;;;;;;7.25;0.98;;;;;;;;;;4988829;28;20080;-62
2021/12/26 09:28:35;;;;;;;4.55;0.95;;;;;;;;;;4990917;28;20553;-62
2021/12/26 09:31:04;;;;;;;3.60;0.82;;;;;;;;;;4990966;28;20410;-62
2021/12/26 09:33:31;;;;;;;4.50;0.93;;;;;;;;;;4990946;28;20034;-63
2021/12/26 09:36:00;;;;;;;4.30;0.77;;;;;;;;;;4991091;28;20093;-60
2021/12/26 09:38:28;;;;;;;6.20;0.95;;;;;;;;;;4988611;28;20037;-61
2021/12/26 09:40:56;;;;;;;5.70;1.02;;;;;;;;;;4990391;28;20105;-64
2021/12/26 09:43:23;;;;;;;6.65;0.90;;;;;;;;;;4991012;28;20475;-62
2021/12/26 09:45:50;;;;;;;2.75;0.98;;;;;;;;;;4989017;28;20042;-64
2021/12/26 09:48:17;;;;;;;3.30;0.80;;;;;;;;;;4990650;28;20018;-62
2021/12/26 09:50:45;;;;;;;6.20;0.70;;;;;;;;;;4989069;28;20081;-63
2021/12/26 09:53:12;;;;;;;5.97;1.08;;;;;;;;;;4990557;28;20521;-62
2021/12/26 09:55:39;;;;;;;3.10;0.90;;;;;;;;;;4990602;28;20497;-65
2021/12/26 09:58:06;;;;;;;4.25;1.20;;;;;;;;;;4989286;28;20105;-64
2021/12/26 10:00:38;;;;;;;4.30;0.82;;;;;;;;;;4989789;28;20031;-62
2021/12/26 10:03:23;;;;;;;3.58;1.10;;;;;;;;;;4989036;28;20479;-63
2021/12/26 10:05:57;;;;;;;7.05;1.20;;;;;;;;;;4989956;28;20031;-66
2021/12/26 10:08:25;;;;;;;6.90;1.17;;;;;;;;;;4990431;28;20022;-65
2021/12/26 10:11:27;;;;;;;3.45;0.90;;;;;;;;;;4989950;28;20429;-66
2021/12/26 10:14:01;;;;;;;4.40;0.55;;;;;;;;;;4926898;29;20425;-67
2021/12/26 10:16:32;;;;;;;3.08;1.05;;;;;;;;;;4981816;28;20035;-66
2021/12/26 10:18:59;;;;;;;4.07;0.75;;;;;;;;;;4989721;28;20378;-65
2021/12/26 10:21:31;;;;;;;3.28;0.90;;;;;;;;;;4989568;28;20022;-64
2021/12/26 10:24:01;;;;;;;3.28;1.02;;;;;;;;;;4989993;28;20034;-65
2021/12/26 10:26:29;;;;;;;5.88;0.90;;;;;;;;;;4987693;28;20490;-65
2021/12/26 10:29:13;;;;;;;2.58;0.73;;;;;;;;;;4989580;28;20059;-65
2021/12/26 10:31:46;;;;;;;6.13;1.00;;;;;;;;;;4989809;28;20489;-66
2021/12/26 10:34:12;;;;;;;;;;;;;;;;;;4989614;28;20038;-66
2021/12/26 10:36:42;;;;;;;5.57;0.93;;;;;;;;;;4989201;28;19909;-62
2021/12/26 10:39:12;;;;;;;5.30;1.00;;;;;;;;;;4988316;28;20019;-65
2021/12/26 10:41:43;;;;;;;2.35;0.90;;;;;;;;;;4989267;28;20026;-65
2021/12/26 10:44:22;;;;;;;3.80;1.00;;;;;;;;;;4989595;28;20045;-64
2021/12/26 10:46:49;;;;;;;2.10;1.00;;;;;;;;;;4989136;28;20038;-64
2021/12/26 10:49:26;;;;;;;6.20;0.95;;;;;;;;;;4987937;28;20015;-61
2021/12/26 10:51:53;;;;;;;3.35;0.80;;;;;;;;;;4989267;28;20164;-63
2021/12/26 10:54:25;;;;;;;6.75;0.93;;;;;;;;;;4988659;28;20022;-66
2021/12/26 10:57:03;;;;;;;4.22;1.20;;;;;;;;;;4989520;28;20031;-66
2021/12/26 10:59:30;;;;;;;4.35;1.23;;;;;;;;;;4989169;28;20018;-66
2021/12/26 11:01:57;;;;;;;4.70;1.15;;;;;;;;;;4986836;28;20109;-64
2021/12/26 11:04:27;;;;;;;5.18;0.90;;;;;;;;;;4989543;28;20042;-65
2021/12/26 11:07:12;;;;;;;3.80;0.90;;;;;;;;;;4984275;28;20105;-64
2021/12/26 11:09:39;;;;;;;4.55;1.00;;;;;;;;;;4987511;28;20042;-63
2021/12/26 11:15:10;;;;;;;2.60;0.80;;;;;;;;;;4977839;28;20118;-65
2021/12/26 11:17:42;;;;;;;2.70;0.95;;;;;;;;;;4987713;28;20052;-65
2021/12/26 11:20:09;;;;;;;4.47;0.90;;;;;;;;;;4988954;28;20029;-64
2021/12/26 11:22:36;;;;;;;3.25;1.00;;;;;;;;;;4988510;28;20027;-66
2021/12/26 11:25:03;;;;;;;7.75;0.95;;;;;;;;;;4987652;28;20039;-61
2021/12/26 11:27:30;;;;;;;5.35;1.13;;;;;;;;;;4987691;28;20072;-63
2021/12/26 11:29:57;;;;;;;2.35;1.02;;;;;;;;;;4988754;28;20023;-63
2021/12/26 11:32:26;;;;;;;2.95;1.30;;;;;;;;;;4988837;28;20030;-65
2021/12/26 11:34:54;;;;;;;5.20;1.00;;;;;;;;;;4987787;28;20406;-65
2021/12/26 11:37:21;;;;;;;3.47;0.88;;;;;;;;;;4987249;28;20026;-64
2021/12/26 11:39:49;;;;;;;5.45;0.90;;;;;;;;;;4987942;28;20030;-66
2021/12/26 11:42:16;;;;;;;3.60;0.82;;;;;;;;;;4988310;28;20029;-65
2021/12/26 11:44:51;;;;;;;3.05;0.90;;;;;;;;;;4988653;28;20038;-65
2021/12/26 11:47:18;;;;;;;3.97;1.10;;;;;;;;;;4987875;28;20109;-62
2021/12/26 11:50:03;;;;;;;3.58;0.73;;;;;;;;;;4986460;28;20037;-65
2021/12/26 11:52:30;;;;;;;2.58;0.93;;;;;;;;;;4988706;28;20026;-63
2021/12/26 11:55:10;;;;;;;4.45;1.10;;;;;;;;;;4988104;28;20109;-64
2021/12/26 11:57:55;;;;;;;2.97;0.80;;;;;;;;;;4988509;28;20023;-65
2021/12/26 12:00:26;;;;;;;3.80;0.98;;;;;;;;;;4987747;28;20495;-64
2021/12/26 12:02:55;;;;;;;3.80;0.90;;;;;;;;;;4986764;28;20041;-66
2021/12/26 12:05:22;;;;;;;3.10;0.80;;;;;;;;;;4988628;28;20073;-65
2021/12/26 12:07:55;;;;;;;9.55;0.93;;;;;;;;;;4987999;28;20382;-66
2021/12/26 12:10:32;;;;;;;6.03;1.13;;;;;;;;;;4986546;28;20069;-66
2021/12/26 12:12:59;;;;;;;2.55;0.88;;;;;;;;;;4987542;28;20406;-64
2021/12/26 12:15:44;;;;;;;4.63;0.75;;;;;;;;;;4986890;28;20030;-65
2021/12/26 12:18:13;;;;;;;2.65;0.70;;;;;;;;;;4988239;28;20022;-63
2021/12/26 12:20:40;;;;;;;5.05;0.80;;;;;;;;;;4989102;28;20018;-64
2021/12/26 12:23:07;;;;;;;3.53;1.00;;;;;;;;;;4991396;28;20026;-62
2021/12/26 12:25:38;;;;;;;4.90;1.33;;;;;;;;;;4990851;28;20091;-64
2021/12/26 12:28:05;;;;;;;7.38;1.10;;;;;;;;;;4991398;28;20238;-62
2021/12/26 12:30:32;;;;;;;2.65;0.90;;;;;;;;;;4991846;28;20133;-64
2021/12/26 12:33:16;;;;;;;4.78;0.85;;;;;;;;;;4992195;28;20027;-64
2021/12/26 12:35:57;;;;;;;6.88;1.52;;;;;;;;;;4991567;28;20181;-63
2021/12/26 12:38:38;;;;;;;3.72;0.80;;;;;;;;;;4989929;28;20026;-64
2021/12/26 12:41:07;;;;;;;3.53;0.70;;;;;;;;;;4991922;28;20022;-63
2021/12/26 12:43:43;;;;;;;4.60;0.88;;;;;;;;;;4990937;28;20030;-64
2021/12/26 12:46:11;;;;;;;2.60;0.73;;;;;;;;;;4991979;28;20037;-65
2021/12/26 12:48:41;;;;;;;6.00;0.90;;;;;;;;;;4990695;28;20039;-62
2021/12/26 12:51:18;;;;;;;2.92;1.20;;;;;;;;;;4988688;28;20388;-65
2021/12/26 12:53:58;;;;;;;2.20;1.00;;;;;;;;;;4991821;28;20026;-64
2021/12/26 12:56:36;;;;;;;4.45;1.30;;;;;;;;;;4990829;28;20014;-62
2021/12/26 12:59:16;;;;;;;2.88;0.80;;;;;;;;;;4990299;28;20108;-65
2021/12/26 13:01:49;;;;;;;3.88;0.77;;;;;;;;;;4989955;28;20421;-65
2021/12/26 13:04:17;;;;;;;2.50;0.77;;;;;;;;;;4990919;28;20031;-64
2021/12/26 13:06:50;;;;;;;2.92;0.90;;;;;;;;;;4990062;28;20022;-62
2021/12/26 13:09:18;;;;;;;5.95;1.30;;;;;;;;;;4991594;28;20029;-63
2021/12/26 13:11:45;;;;;;;6.15;0.85;;;;;;;;;;4991134;28;20027;-64
2021/12/26 13:14:12;;;;;;;1.67;0.65;;;;;;;;;;4989560;28;20142;-62
2021/12/26 13:16:39;;;;;;;2.15;0.95;;;;;;;;;;4991242;28;20120;-63
2021/12/26 13:19:07;;;;;;;3.88;0.90;;;;;;;;;;4990857;28;20126;-62
2021/12/26 13:21:35;;;;;;;3.20;0.90;;;;;;;;;;4991494;28;20049;-62
2021/12/26 13:24:02;;;;;;;4.93;0.70;;;;;;;;;;4990096;28;20030;-62
2021/12/26 13:26:29;;;;;;;5.93;1.38;;;;;;;;;;4989269;28;20498;-63
2021/12/26 13:28:56;;;;;;;2.50;0.70;;;;;;;;;;4991263;28;20081;-62
2021/12/26 13:31:24;;;;;;;4.28;0.90;;;;;;;;;;4990420;28;20133;-66
2021/12/26 13:33:53;;;;;;;5.25;0.82;;;;;;;;;;4990018;28;20041;-64
2021/12/26 13:36:21;;;;;;;2.97;0.80;;;;;;;;;;4990215;28;20037;-63
2021/12/26 13:38:52;;;;;;;4.68;1.02;;;;;;;;;;4988861;28;20112;-63
2021/12/26 13:41:20;;;;;;;5.63;0.70;;;;;;;;;;4991559;28;20482;-62
2021/12/26 13:43:48;;;;;;;4.70;0.80;;;;;;;;;;4989995;28;20057;-65
2021/12/26 13:46:22;;;;;;;7.80;1.05;;;;;;;;;;4990510;28;20026;-63
2021/12/26 13:48:54;;;;;;;5.45;0.90;;;;;;;;;;4989466;28;20029;-66
2021/12/26 13:51:23;;;;;;;1.27;0.63;;;;;;;;;;4988914;28;20026;-63
2021/12/26 13:53:53;;;;;;;5.18;1.00;;;;;;;;;;4990871;28;20558;-62
2021/12/26 13:56:20;;;;;;;4.82;0.95;;;;;;;;;;4989980;28;20109;-62
2021/12/26 13:58:47;;;;;;;7.25;1.05;;;;;;;;;;4990193;28;20069;-64
2021/12/26 14:01:14;;;;;;;4.30;1.05;;;;;;;;;;4989186;28;20438;-62
2021/12/26 14:03:45;;;;;;;4.10;0.90;;;;;;;;;;4989028;28;20057;-62
2021/12/26 14:06:12;;;;;;;7.63;1.10;;;;;;;;;;4990560;28;20066;-62
2021/12/26 14:08:39;;;;;;;4.88;0.82;;;;;;;;;;4988767;28;20030;-64
2021/12/26 14:11:07;;;;;;;6.40;0.93;;;;;;;;;;4989829;28;20034;-62
2021/12/26 14:13:53;;;;;;;5.22;0.90;;;;;;;;;;4988288;28;20090;-64
2021/12/26 14:16:28;;;;;;;2.97;0.80;;;;;;;;;;4989519;28;20026;-64
2021/12/26 14:18:55;;;;;;;6.35;1.08;;;;;;;;;;4989844;28;20026;-61
2021/12/26 14:21:22;;;;;;;5.65;1.30;;;;;;;;;;4990406;28;20038;-63
2021/12/26 14:23:53;;;;;;;18.73;1.25;;;;;;;;;;4988988;28;20477;-62
2021/12/26 14:26:24;;;;;;;6.57;1.02;;;;;;;;;;4987977;28;20092;-63
2021/12/26 14:28:55;;;;;;;6.90;0.77;;;;;;;;;;4989266;28;20399;-62
2021/12/26 14:31:30;;;;;;;3.70;0.90;;;;;;;;;;4989471;28;20573;-63
2021/12/26 14:33:57;;;;;;;8.10;1.13;;;;;;;;;;4990194;28;20069;-64
2021/12/26 14:36:24;;;;;;;8.40;0.80;;;;;;;;;;4987317;28;20057;-62
2021/12/26 14:39:05;;;;;;;9.52;1.05;;;;;;;;;;4988066;28;20438;-62
2021/12/26 14:41:40;;;;;;;6.00;0.60;;;;;;;;;;4989749;28;20052;-62
2021/12/26 14:44:33;;;;;;;12.77;1.50;;;;;;;;;;4988740;28;20037;-65
2021/12/26 14:47:11;;;;;;;5.88;1.42;;;;;;;;;;4986891;28;20751;-62
2021/12/26 14:49:42;;;;;;;9.73;1.42;;;;;;;;;;4987975;28;20022;-62
2021/12/26 14:52:09;;;;;;;6.97;1.10;;;;;;;;;;4989377;28;20073;-64
2021/12/26 14:54:38;;;;;;;2.70;1.15;;;;;;;;;;4989068;28;20029;-62
2021/12/26 14:57:05;;;;;;;9.10;1.38;;;;;;;;;;4989442;28;20080;-62